Aérodrome :
LOGIN :

S'inscrire | Disclaimer

   EN    FR    IT 

 










Légende :    VFR   VFR Marginal   IFR   IFR Intensif   IFR Très Intensif
Visi : 
Plafond : 
>= 8 km
>= 3000ft
5 à 8 km
1000 à 3000 ft
1500m à 5 km
500 à 1000 ft
800 à 1500m
200 à 500 ft
< 800m
< 200 ft
Symboles :   Orages  Brouillard  Fortes neiges  Fortes précipitations  Vent > 20 kt
SIGMETs :   Divers  Orages  Givrage  Turbulence  Onde Orograph.  Cendres Volcan.







- Altitude de l'aérodrome : 74 ft
- Code IATA : MRS
- Voir les cartes d'approche


LFML - Marseille / Marignane

DERNIER METAR :
  • 262200Z AUTO 16002KT CAVOK 19/11 Q1017 NOSIG

METARs EXPIRÉS :
  • 262130Z AUTO 21002KT CAVOK 19/12 Q1017 NOSIG
  • 262100Z AUTO 27002KT CAVOK 20/12 Q1017 NOSIG
  • 262030Z AUTO VRB02KT CAVOK 20/12 Q1017 NOSIG
  • 262000Z AUTO 20004KT CAVOK 21/12 Q1017 NOSIG
  • 261930Z AUTO 25005KT CAVOK 22/10 Q1016 NOSIG

TAF TAF LFML
Valide du 26 à 21h jusqu'au 28 à 03h UTC


262000Z 2621/2803 VRB05KT CAVOK TX27/2712Z TN16/2703Z
ATIS : +33 4 42 31 15 15
Pas de NOTAMs connus pour ce terrain.



MET'MAP, la Météo Aéronautique d'un coup d'oeil ! - Copyright ORBIFLY Décembre 2007 - Disclaimer

ORBIFLY MET'MAP TEAM :

Programmation & Développement : Alexandra Zaïnal
Conception & Développement : Baudouin d'Aumeries
Co-Programmation & Développement : Marc-Olivier Méhu
Soutien technique & logistique : Manuel Goepfert

Contact : metmap@orbifly.com




SOURCES & CREDITS :

   NOAA